sensor_id;sensor_type;location;lat;lon;timestamp;temperature;humidity
20479;DHT22;10398;52.490;13.434;2023-05-28T00:01:29;15.30;95.40
20479;DHT22;10398;52.490;13.434;2023-05-28T00:03:55;15.20;95.50
20479;DHT22;10398;52.490;13.434;2023-05-28T00:06:20;15.20;95.60
20479;DHT22;10398;52.490;13.434;2023-05-28T00:08:46;15.20;95.90
20479;DHT22;10398;52.490;13.434;2023-05-28T00:11:12;15.10;96.00
20479;DHT22;10398;52.490;13.434;2023-05-28T00:13:37;15.00;96.20
20479;DHT22;10398;52.490;13.434;2023-05-28T00:16:03;15.00;96.40
20479;DHT22;10398;52.490;13.434;2023-05-28T00:18:28;15.10;96.50
20479;DHT22;10398;52.490;13.434;2023-05-28T00:20:55;15.00;96.60
20479;DHT22;10398;52.490;13.434;2023-05-28T00:23:21;15.00;96.80
20479;DHT22;10398;52.490;13.434;2023-05-28T00:25:47;14.90;97.00
20479;DHT22;10398;52.490;13.434;2023-05-28T00:28:12;14.80;97.20
20479;DHT22;10398;52.490;13.434;2023-05-28T00:30:38;14.80;97.40
20479;DHT22;10398;52.490;13.434;2023-05-28T00:33:04;14.80;97.60
20479;DHT22;10398;52.490;13.434;2023-05-28T00:35:29;14.80;97.90
20479;DHT22;10398;52.490;13.434;2023-05-28T00:37:55;14.70;98.00
20479;DHT22;10398;52.490;13.434;2023-05-28T00:40:21;14.90;98.00
20479;DHT22;10398;52.490;13.434;2023-05-28T00:42:47;14.80;98.10
20479;DHT22;10398;52.490;13.434;2023-05-28T00:45:13;14.80;98.20
20479;DHT22;10398;52.490;13.434;2023-05-28T00:47:40;14.80;98.40
20479;DHT22;10398;52.490;13.434;2023-05-28T00:50:07;14.80;98.40
20479;DHT22;10398;52.490;13.434;2023-05-28T00:52:33;14.70;98.60
20479;DHT22;10398;52.490;13.434;2023-05-28T00:54:59;14.70;98.90
20479;DHT22;10398;52.490;13.434;2023-05-28T00:57:24;14.70;99.00
20479;DHT22;10398;52.490;13.434;2023-05-28T00:59:51;14.70;99.10
20479;DHT22;10398;52.490;13.434;2023-05-28T01:02:17;14.60;99.40
20479;DHT22;10398;52.490;13.434;2023-05-28T01:04:43;14.50;99.80
20479;DHT22;10398;52.490;13.434;2023-05-28T01:07:08;14.40;99.90
20479;DHT22;10398;52.490;13.434;2023-05-28T01:09:34;14.50;99.90
20479;DHT22;10398;52.490;13.434;2023-05-28T01:12:01;14.60;99.90
20479;DHT22;10398;52.490;13.434;2023-05-28T01:14:27;14.70;99.90
20479;DHT22;10398;52.490;13.434;2023-05-28T01:16:55;14.70;99.90
20479;DHT22;10398;52.490;13.434;2023-05-28T01:19:24;14.70;99.90
20479;DHT22;10398;52.490;13.434;2023-05-28T01:24:22;14.60;99.90
20479;DHT22;10398;52.490;13.434;2023-05-28T01:26:48;14.60;99.90
20479;DHT22;10398;52.490;13.434;2023-05-28T01:29:18;14.60;99.90
20479;DHT22;10398;52.490;13.434;2023-05-28T01:31:45;14.50;99.90
20479;DHT22;10398;52.490;13.434;2023-05-28T01:34:11;14.50;99.90
20479;DHT22;10398;52.490;13.434;2023-05-28T01:36:50;14.50;99.90
20479;DHT22;10398;52.490;13.434;2023-05-28T01:39:18;14.40;99.90
20479;DHT22;10398;52.490;13.434;2023-05-28T01:41:48;14.40;99.90
20479;DHT22;10398;52.490;13.434;2023-05-28T01:44:15;14.40;99.90
20479;DHT22;10398;52.490;13.434;2023-05-28T01:46:45;14.30;99.90
20479;DHT22;10398;52.490;13.434;2023-05-28T01:49:11;14.30;99.90
20479;DHT22;10398;52.490;13.434;2023-05-28T01:51:37;14.30;99.90
20479;DHT22;10398;52.490;13.434;2023-05-28T01:54:03;14.40;99.90
20479;DHT22;10398;52.490;13.434;2023-05-28T01:56:29;14.40;99.90
20479;DHT22;10398;52.490;13.434;2023-05-28T01:58:55;14.40;99.90
20479;DHT22;10398;52.490;13.434;2023-05-28T02:01:33;14.30;99.90
20479;DHT22;10398;52.490;13.434;2023-05-28T02:04:01;14.20;99.90
20479;DHT22;10398;52.490;13.434;2023-05-28T02:06:30;14.20;99.90
20479;DHT22;10398;52.490;13.434;2023-05-28T02:08:56;14.00;99.90
20479;DHT22;10398;52.490;13.434;2023-05-28T02:11:22;14.00;99.90
20479;DHT22;10398;52.490;13.434;2023-05-28T02:13:48;14.00;99.90
20479;DHT22;10398;52.490;13.434;2023-05-28T02:16:14;13.90;99.90
20479;DHT22;10398;52.490;13.434;2023-05-28T02:18:46;13.90;99.90
20479;DHT22;10398;52.490;13.434;2023-05-28T02:21:13;13.90;99.90
20479;DHT22;10398;52.490;13.434;2023-05-28T02:23:44;13.90;99.90
20479;DHT22;10398;52.490;13.434;2023-05-28T02:26:09;13.80;99.90
20479;DHT22;10398;52.490;13.434;2023-05-28T02:28:35;13.70;99.90
20479;DHT22;10398;52.490;13.434;2023-05-28T02:31:01;13.70;99.90
20479;DHT22;10398;52.490;13.434;2023-05-28T02:33:27;13.70;99.90
20479;DHT22;10398;52.490;13.434;2023-05-28T02:35:53;13.70;99.90
20479;DHT22;10398;52.490;13.434;2023-05-28T02:38:19;13.70;99.90
20479;DHT22;10398;52.490;13.434;2023-05-28T02:40:45;13.70;99.90
20479;DHT22;10398;52.490;13.434;2023-05-28T02:43:11;13.70;99.90
20479;DHT22;10398;52.490;13.434;2023-05-28T02:45:36;13.60;99.90
20479;DHT22;10398;52.490;13.434;2023-05-28T02:48:02;13.60;99.90
20479;DHT22;10398;52.490;13.434;2023-05-28T02:50:28;13.50;99.90
20479;DHT22;10398;52.490;13.434;2023-05-28T02:52:53;13.50;99.90
20479;DHT22;10398;52.490;13.434;2023-05-28T02:55:20;13.50;99.90
20479;DHT22;10398;52.490;13.434;2023-05-28T02:57:46;13.50;99.90
20479;DHT22;10398;52.490;13.434;2023-05-28T03:00:12;13.40;99.90
20479;DHT22;10398;52.490;13.434;2023-05-28T03:02:38;13.40;99.90
20479;DHT22;10398;52.490;13.434;2023-05-28T03:05:04;13.40;99.90
20479;DHT22;10398;52.490;13.434;2023-05-28T03:07:30;13.40;99.90
20479;DHT22;10398;52.490;13.434;2023-05-28T03:09:57;13.40;99.90
20479;DHT22;10398;52.490;13.434;2023-05-28T03:12:22;13.30;99.90
20479;DHT22;10398;52.490;13.434;2023-05-28T03:14:48;13.30;99.90
20479;DHT22;10398;52.490;13.434;2023-05-28T03:17:14;13.30;99.90
20479;DHT22;10398;52.490;13.434;2023-05-28T03:19:40;13.30;99.90
20479;DHT22;10398;52.490;13.434;2023-05-28T03:22:06;13.30;99.90
20479;DHT22;10398;52.490;13.434;2023-05-28T03:24:31;13.30;99.90
20479;DHT22;10398;52.490;13.434;2023-05-28T03:26:59;13.30;99.90
20479;DHT22;10398;52.490;13.434;2023-05-28T03:29:25;13.30;99.90
20479;DHT22;10398;52.490;13.434;2023-05-28T03:31:50;13.30;99.90
20479;DHT22;10398;52.490;13.434;2023-05-28T03:34:16;13.30;99.90
20479;DHT22;10398;52.490;13.434;2023-05-28T03:36:42;13.30;99.90
20479;DHT22;10398;52.490;13.434;2023-05-28T03:39:09;13.40;99.90
20479;DHT22;10398;52.490;13.434;2023-05-28T03:41:35;13.40;99.90
20479;DHT22;10398;52.490;13.434;2023-05-28T03:44:01;13.50;99.90
20479;DHT22;10398;52.490;13.434;2023-05-28T03:46:27;13.40;99.90
20479;DHT22;10398;52.490;13.434;2023-05-28T03:48:53;13.40;99.90
20479;DHT22;10398;52.490;13.434;2023-05-28T03:51:18;13.50;99.90
20479;DHT22;10398;52.490;13.434;2023-05-28T03:53:44;13.60;99.90
20479;DHT22;10398;52.490;13.434;2023-05-28T03:56:10;13.60;99.90
20479;DHT22;10398;52.490;13.434;2023-05-28T03:58:36;13.50;99.90
20479;DHT22;10398;52.490;13.434;2023-05-28T04:01:01;13.50;99.90
20479;DHT22;10398;52.490;13.434;2023-05-28T04:03:27;13.50;99.90
20479;DHT22;10398;52.490;13.434;2023-05-28T04:05:53;13.50;99.90
20479;DHT22;10398;52.490;13.434;2023-05-28T04:08:18;13.40;99.90
20479;DHT22;10398;52.490;13.434;2023-05-28T04:10:44;13.40;99.90
20479;DHT22;10398;52.490;13.434;2023-05-28T04:13:10;13.40;99.90
20479;DHT22;10398;52.490;13.434;2023-05-28T04:15:35;13.40;99.90
20479;DHT22;10398;52.490;13.434;2023-05-28T04:18:01;13.40;99.90
20479;DHT22;10398;52.490;13.434;2023-05-28T04:20:27;13.40;99.90
20479;DHT22;10398;52.490;13.434;2023-05-28T04:22:52;13.50;99.90
20479;DHT22;10398;52.490;13.434;2023-05-28T04:25:18;13.60;99.90
20479;DHT22;10398;52.490;13.434;2023-05-28T04:27:44;13.70;99.90
20479;DHT22;10398;52.490;13.434;2023-05-28T04:30:11;13.80;99.90
20479;DHT22;10398;52.490;13.434;2023-05-28T04:32:36;13.70;99.90
20479;DHT22;10398;52.490;13.434;2023-05-28T04:35:05;13.80;99.90
20479;DHT22;10398;52.490;13.434;2023-05-28T04:37:31;13.80;99.90
20479;DHT22;10398;52.490;13.434;2023-05-28T04:39:58;13.80;99.90
20479;DHT22;10398;52.490;13.434;2023-05-28T04:42:24;13.90;99.90
20479;DHT22;10398;52.490;13.434;2023-05-28T04:44:49;14.00;99.90
20479;DHT22;10398;52.490;13.434;2023-05-28T04:47:19;14.00;99.90
20479;DHT22;10398;52.490;13.434;2023-05-28T04:49:44;14.10;99.90
20479;DHT22;10398;52.490;13.434;2023-05-28T04:52:10;14.10;99.90
20479;DHT22;10398;52.490;13.434;2023-05-28T04:54:36;14.10;99.90
20479;DHT22;10398;52.490;13.434;2023-05-28T04:57:02;14.10;99.90
20479;DHT22;10398;52.490;13.434;2023-05-28T04:59:28;14.20;99.90
20479;DHT22;10398;52.490;13.434;2023-05-28T05:01:53;14.10;99.90
20479;DHT22;10398;52.490;13.434;2023-05-28T05:04:19;14.20;99.90
20479;DHT22;10398;52.490;13.434;2023-05-28T05:06:44;14.40;99.90
20479;DHT22;10398;52.490;13.434;2023-05-28T05:09:10;14.50;99.90
20479;DHT22;10398;52.490;13.434;2023-05-28T05:11:36;14.40;99.90
20479;DHT22;10398;52.490;13.434;2023-05-28T05:14:01;14.40;99.90
20479;DHT22;10398;52.490;13.434;2023-05-28T05:16:27;14.40;99.90
20479;DHT22;10398;52.490;13.434;2023-05-28T05:18:52;14.40;99.90
20479;DHT22;10398;52.490;13.434;2023-05-28T05:21:18;14.40;99.90
20479;DHT22;10398;52.490;13.434;2023-05-28T05:23:44;14.40;99.90
20479;DHT22;10398;52.490;13.434;2023-05-28T05:26:09;14.40;99.90
20479;DHT22;10398;52.490;13.434;2023-05-28T05:28:38;14.50;99.90
20479;DHT22;10398;52.490;13.434;2023-05-28T05:31:03;14.60;99.90
20479;DHT22;10398;52.490;13.434;2023-05-28T05:33:29;14.60;99.90
20479;DHT22;10398;52.490;13.434;2023-05-28T05:35:55;14.70;99.90
20479;DHT22;10398;52.490;13.434;2023-05-28T05:38:20;14.70;99.90
20479;DHT22;10398;52.490;13.434;2023-05-28T05:40:46;14.70;99.90
20479;DHT22;10398;52.490;13.434;2023-05-28T05:43:12;14.80;99.90
20479;DHT22;10398;52.490;13.434;2023-05-28T05:45:37;14.80;99.90
20479;DHT22;10398;52.490;13.434;2023-05-28T05:48:03;14.80;99.90
20479;DHT22;10398;52.490;13.434;2023-05-28T05:50:29;14.90;99.90
20479;DHT22;10398;52.490;13.434;2023-05-28T05:52:54;14.90;99.90
20479;DHT22;10398;52.490;13.434;2023-05-28T05:55:20;14.90;99.90
20479;DHT22;10398;52.490;13.434;2023-05-28T05:57:46;15.00;99.90
20479;DHT22;10398;52.490;13.434;2023-05-28T06:00:12;15.00;99.90
20479;DHT22;10398;52.490;13.434;2023-05-28T06:02:38;15.10;99.90
20479;DHT22;10398;52.490;13.434;2023-05-28T06:05:04;15.20;99.90
20479;DHT22;10398;52.490;13.434;2023-05-28T06:07:31;15.20;99.90
20479;DHT22;10398;52.490;13.434;2023-05-28T06:09:58;15.40;99.90
20479;DHT22;10398;52.490;13.434;2023-05-28T06:12:24;15.40;99.90
20479;DHT22;10398;52.490;13.434;2023-05-28T06:14:49;15.50;99.90
20479;DHT22;10398;52.490;13.434;2023-05-28T06:17:15;15.60;99.90
20479;DHT22;10398;52.490;13.434;2023-05-28T06:19:41;15.60;99.90
20479;DHT22;10398;52.490;13.434;2023-05-28T06:22:07;15.70;99.90
20479;DHT22;10398;52.490;13.434;2023-05-28T06:24:33;15.80;99.90
20479;DHT22;10398;52.490;13.434;2023-05-28T06:26:59;16.00;99.90
20479;DHT22;10398;52.490;13.434;2023-05-28T06:29:24;16.10;99.90
20479;DHT22;10398;52.490;13.434;2023-05-28T06:31:50;16.10;99.90
20479;DHT22;10398;52.490;13.434;2023-05-28T06:34:16;16.20;99.90
20479;DHT22;10398;52.490;13.434;2023-05-28T06:36:42;16.30;99.90
20479;DHT22;10398;52.490;13.434;2023-05-28T06:39:08;16.50;99.60
20479;DHT22;10398;52.490;13.434;2023-05-28T06:41:34;16.60;99.30
20479;DHT22;10398;52.490;13.434;2023-05-28T06:44:00;16.70;98.90
20479;DHT22;10398;52.490;13.434;2023-05-28T06:46:25;16.70;98.30
20479;DHT22;10398;52.490;13.434;2023-05-28T06:48:54;16.80;98.40
20479;DHT22;10398;52.490;13.434;2023-05-28T06:51:19;16.90;97.90
20479;DHT22;10398;52.490;13.434;2023-05-28T06:53:45;17.00;97.80
20479;DHT22;10398;52.490;13.434;2023-05-28T06:56:12;17.00;97.10
20479;DHT22;10398;52.490;13.434;2023-05-28T06:58:37;17.00;96.90
20479;DHT22;10398;52.490;13.434;2023-05-28T07:01:03;17.10;97.40
20479;DHT22;10398;52.490;13.434;2023-05-28T07:03:30;17.20;96.80
20479;DHT22;10398;52.490;13.434;2023-05-28T07:05:55;17.30;96.60
20479;DHT22;10398;52.490;13.434;2023-05-28T07:08:21;17.40;97.20
20479;DHT22;10398;52.490;13.434;2023-05-28T07:10:47;17.60;96.10
20479;DHT22;10398;52.490;13.434;2023-05-28T07:13:13;17.60;95.20
20479;DHT22;10398;52.490;13.434;2023-05-28T07:15:38;17.60;95.30
20479;DHT22;10398;52.490;13.434;2023-05-28T07:18:04;17.70;96.10
20479;DHT22;10398;52.490;13.434;2023-05-28T07:20:29;17.80;94.60
20479;DHT22;10398;52.490;13.434;2023-05-28T07:22:56;17.80;93.80
20479;DHT22;10398;52.490;13.434;2023-05-28T07:25:22;17.80;94.00
20479;DHT22;10398;52.490;13.434;2023-05-28T07:27:48;17.90;93.90
20479;DHT22;10398;52.490;13.434;2023-05-28T07:30:13;17.90;92.90
20479;DHT22;10398;52.490;13.434;2023-05-28T07:32:39;18.00;93.90
20479;DHT22;10398;52.490;13.434;2023-05-28T07:35:05;18.20;93.70
20479;DHT22;10398;52.490;13.434;2023-05-28T07:37:31;18.40;93.70
20479;DHT22;10398;52.490;13.434;2023-05-28T07:39:57;18.50;92.80
20479;DHT22;10398;52.490;13.434;2023-05-28T07:42:23;18.60;91.60
20479;DHT22;10398;52.490;13.434;2023-05-28T07:44:48;18.60;91.10
20479;DHT22;10398;52.490;13.434;2023-05-28T07:47:14;18.70;90.20
20479;DHT22;10398;52.490;13.434;2023-05-28T07:49:41;18.60;90.40
20479;DHT22;10398;52.490;13.434;2023-05-28T07:52:06;18.70;92.10
20479;DHT22;10398;52.490;13.434;2023-05-28T07:54:34;18.70;92.50
20479;DHT22;10398;52.490;13.434;2023-05-28T07:57:00;18.80;92.20
20479;DHT22;10398;52.490;13.434;2023-05-28T07:59:25;19.00;91.70
20479;DHT22;10398;52.490;13.434;2023-05-28T08:01:52;19.20;88.00
20479;DHT22;10398;52.490;13.434;2023-05-28T08:04:18;19.30;89.20
20479;DHT22;10398;52.490;13.434;2023-05-28T08:06:43;19.40;90.20
20479;DHT22;10398;52.490;13.434;2023-05-28T08:09:10;19.50;90.20
20479;DHT22;10398;52.490;13.434;2023-05-28T08:11:36;19.60;90.90
20479;DHT22;10398;52.490;13.434;2023-05-28T08:14:01;19.60;84.10
20479;DHT22;10398;52.490;13.434;2023-05-28T08:16:27;19.40;82.20
20479;DHT22;10398;52.490;13.434;2023-05-28T08:18:53;19.30;81.90
20479;DHT22;10398;52.490;13.434;2023-05-28T08:21:18;19.30;86.60
20479;DHT22;10398;52.490;13.434;2023-05-28T08:23:44;19.40;83.20
20479;DHT22;10398;52.490;13.434;2023-05-28T08:26:10;19.40;80.70
20479;DHT22;10398;52.490;13.434;2023-05-28T08:28:35;19.50;85.60
20479;DHT22;10398;52.490;13.434;2023-05-28T08:31:01;19.60;85.80
20479;DHT22;10398;52.490;13.434;2023-05-28T08:33:27;19.70;83.50
20479;DHT22;10398;52.490;13.434;2023-05-28T08:35:52;19.70;85.10
20479;DHT22;10398;52.490;13.434;2023-05-28T08:38:18;19.90;86.30
20479;DHT22;10398;52.490;13.434;2023-05-28T08:40:49;20.00;85.10
20479;DHT22;10398;52.490;13.434;2023-05-28T08:43:15;20.20;83.70
20479;DHT22;10398;52.490;13.434;2023-05-28T08:45:41;20.30;82.40
20479;DHT22;10398;52.490;13.434;2023-05-28T08:48:07;20.40;78.40
20479;DHT22;10398;52.490;13.434;2023-05-28T08:50:37;20.30;81.40
20479;DHT22;10398;52.490;13.434;2023-05-28T08:53:06;20.30;79.80
20479;DHT22;10398;52.490;13.434;2023-05-28T08:55:33;20.30;75.70
20479;DHT22;10398;52.490;13.434;2023-05-28T08:58:00;20.40;76.30
20479;DHT22;10398;52.490;13.434;2023-05-28T09:00:25;20.20;75.70
20479;DHT22;10398;52.490;13.434;2023-05-28T09:02:51;20.20;73.30
20479;DHT22;10398;52.490;13.434;2023-05-28T09:05:17;20.20;75.10
20479;DHT22;10398;52.490;13.434;2023-05-28T09:07:43;20.30;76.50
20479;DHT22;10398;52.490;13.434;2023-05-28T09:10:11;20.40;78.10
20479;DHT22;10398;52.490;13.434;2023-05-28T09:12:37;20.40;76.80
20479;DHT22;10398;52.490;13.434;2023-05-28T09:15:06;20.50;78.60
20479;DHT22;10398;52.490;13.434;2023-05-28T09:17:36;20.70;80.40
20479;DHT22;10398;52.490;13.434;2023-05-28T09:20:12;20.80;75.60
20479;DHT22;10398;52.490;13.434;2023-05-28T09:22:38;21.00;75.00
20479;DHT22;10398;52.490;13.434;2023-05-28T09:25:06;21.10;75.40
20479;DHT22;10398;52.490;13.434;2023-05-28T09:27:32;21.10;71.80
20479;DHT22;10398;52.490;13.434;2023-05-28T09:30:03;21.20;72.50
20479;DHT22;10398;52.490;13.434;2023-05-28T09:32:32;21.20;72.70
20479;DHT22;10398;52.490;13.434;2023-05-28T09:34:58;21.20;74.00
20479;DHT22;10398;52.490;13.434;2023-05-28T09:37:28;21.30;73.20
20479;DHT22;10398;52.490;13.434;2023-05-28T09:40:04;21.30;69.30
20479;DHT22;10398;52.490;13.434;2023-05-28T09:42:39;21.30;70.50
20479;DHT22;10398;52.490;13.434;2023-05-28T09:45:09;21.30;71.40
20479;DHT22;10398;52.490;13.434;2023-05-28T09:47:45;21.30;71.90
20479;DHT22;10398;52.490;13.434;2023-05-28T09:50:11;21.50;74.90
20479;DHT22;10398;52.490;13.434;2023-05-28T09:52:43;21.60;73.80
20479;DHT22;10398;52.490;13.434;2023-05-28T09:55:15;21.70;73.70
20479;DHT22;10398;52.490;13.434;2023-05-28T09:57:55;21.90;72.90
20479;DHT22;10398;52.490;13.434;2023-05-28T10:05:50;22.10;68.20
20479;DHT22;10398;52.490;13.434;2023-05-28T10:08:18;21.90;67.90
20479;DHT22;10398;52.490;13.434;2023-05-28T10:10:49;21.90;70.10
20479;DHT22;10398;52.490;13.434;2023-05-28T10:13:16;22.00;71.90
20479;DHT22;10398;52.490;13.434;2023-05-28T10:15:42;22.10;70.00
20479;DHT22;10398;52.490;13.434;2023-05-28T10:18:08;22.20;69.50
20479;DHT22;10398;52.490;13.434;2023-05-28T10:20:34;22.30;70.60
20479;DHT22;10398;52.490;13.434;2023-05-28T10:23:00;22.30;70.10
20479;DHT22;10398;52.490;13.434;2023-05-28T10:25:26;22.50;68.60
20479;DHT22;10398;52.490;13.434;2023-05-28T10:27:58;22.50;69.10
20479;DHT22;10398;52.490;13.434;2023-05-28T10:30:34;22.60;66.70
20479;DHT22;10398;52.490;13.434;2023-05-28T10:33:05;22.70;64.10
20479;DHT22;10398;52.490;13.434;2023-05-28T10:35:32;22.60;62.10
20479;DHT22;10398;52.490;13.434;2023-05-28T10:38:06;22.50;62.80
20479;DHT22;10398;52.490;13.434;2023-05-28T10:40:35;22.50;63.70
20479;DHT22;10398;52.490;13.434;2023-05-28T10:43:04;22.60;63.00
20479;DHT22;10398;52.490;13.434;2023-05-28T10:45:37;22.50;64.10
20479;DHT22;10398;52.490;13.434;2023-05-28T10:48:03;22.70;64.30
20479;DHT22;10398;52.490;13.434;2023-05-28T10:50:28;22.80;62.50
20479;DHT22;10398;52.490;13.434;2023-05-28T10:53:08;22.80;62.10
20479;DHT22;10398;52.490;13.434;2023-05-28T11:00:52;23.00;65.70
20479;DHT22;10398;52.490;13.434;2023-05-28T11:03:41;23.10;64.50
20479;DHT22;10398;52.490;13.434;2023-05-28T11:06:11;23.20;65.60
20479;DHT22;10398;52.490;13.434;2023-05-28T11:08:48;23.30;66.00
20479;DHT22;10398;52.490;13.434;2023-05-28T11:11:25;23.30;66.30
20479;DHT22;10398;52.490;13.434;2023-05-28T11:13:54;23.40;65.40
20479;DHT22;10398;52.490;13.434;2023-05-28T11:16:19;23.40;66.10
20479;DHT22;10398;52.490;13.434;2023-05-28T11:19:05;23.50;63.90
20479;DHT22;10398;52.490;13.434;2023-05-28T11:21:33;23.60;64.00
20479;DHT22;10398;52.490;13.434;2023-05-28T11:24:03;23.70;65.10
20479;DHT22;10398;52.490;13.434;2023-05-28T11:26:30;23.80;63.90
20479;DHT22;10398;52.490;13.434;2023-05-28T11:28:55;23.90;62.90
20479;DHT22;10398;52.490;13.434;2023-05-28T11:31:21;23.90;63.70
20479;DHT22;10398;52.490;13.434;2023-05-28T11:33:50;24.00;63.90
20479;DHT22;10398;52.490;13.434;2023-05-28T11:36:17;24.00;64.20
20479;DHT22;10398;52.490;13.434;2023-05-28T11:38:43;24.00;61.20
20479;DHT22;10398;52.490;13.434;2023-05-28T11:41:09;24.10;61.50
20479;DHT22;10398;52.490;13.434;2023-05-28T11:43:35;24.10;61.00
20479;DHT22;10398;52.490;13.434;2023-05-28T11:46:01;24.10;61.90
20479;DHT22;10398;52.490;13.434;2023-05-28T11:48:27;24.20;61.50
20479;DHT22;10398;52.490;13.434;2023-05-28T11:51:00;24.20;61.10
20479;DHT22;10398;52.490;13.434;2023-05-28T11:53:42;24.30;61.40
20479;DHT22;10398;52.490;13.434;2023-05-28T11:56:09;24.40;61.70
20479;DHT22;10398;52.490;13.434;2023-05-28T11:58:36;24.40;59.60
20479;DHT22;10398;52.490;13.434;2023-05-28T12:01:07;24.40;59.70
20479;DHT22;10398;52.490;13.434;2023-05-28T12:03:33;24.40;60.80
20479;DHT22;10398;52.490;13.434;2023-05-28T12:05:59;24.40;60.40
20479;DHT22;10398;52.490;13.434;2023-05-28T12:08:26;24.50;61.40
20479;DHT22;10398;52.490;13.434;2023-05-28T12:10:53;24.50;59.30
20479;DHT22;10398;52.490;13.434;2023-05-28T12:13:31;24.60;59.90
20479;DHT22;10398;52.490;13.434;2023-05-28T12:16:11;24.60;57.30
20479;DHT22;10398;52.490;13.434;2023-05-28T12:18:41;24.30;58.40
20479;DHT22;10398;52.490;13.434;2023-05-28T12:21:14;24.30;59.90
20479;DHT22;10398;52.490;13.434;2023-05-28T12:23:46;24.40;59.40
20479;DHT22;10398;52.490;13.434;2023-05-28T12:26:14;24.30;60.80
20479;DHT22;10398;52.490;13.434;2023-05-28T12:28:40;24.40;60.30
20479;DHT22;10398;52.490;13.434;2023-05-28T12:31:07;24.50;58.40
20479;DHT22;10398;52.490;13.434;2023-05-28T12:33:33;24.70;58.00
20479;DHT22;10398;52.490;13.434;2023-05-28T12:35:59;24.80;61.00
20479;DHT22;10398;52.490;13.434;2023-05-28T12:38:28;24.80;57.70
20479;DHT22;10398;52.490;13.434;2023-05-28T12:40:53;24.90;58.40
20479;DHT22;10398;52.490;13.434;2023-05-28T12:43:19;24.90;57.20
20479;DHT22;10398;52.490;13.434;2023-05-28T12:45:46;24.90;60.00
20479;DHT22;10398;52.490;13.434;2023-05-28T12:48:12;24.90;59.20
20479;DHT22;10398;52.490;13.434;2023-05-28T12:50:42;24.90;57.00
20479;DHT22;10398;52.490;13.434;2023-05-28T12:53:08;25.00;58.90
20479;DHT22;10398;52.490;13.434;2023-05-28T12:55:34;25.10;57.70
20479;DHT22;10398;52.490;13.434;2023-05-28T12:58:00;25.20;60.50
20479;DHT22;10398;52.490;13.434;2023-05-28T13:00:25;25.10;58.10
20479;DHT22;10398;52.490;13.434;2023-05-28T13:02:51;25.10;60.40
20479;DHT22;10398;52.490;13.434;2023-05-28T13:05:17;25.20;59.30
20479;DHT22;10398;52.490;13.434;2023-05-28T13:07:43;25.20;57.40
20479;DHT22;10398;52.490;13.434;2023-05-28T13:10:10;25.20;57.40
20479;DHT22;10398;52.490;13.434;2023-05-28T13:12:36;25.30;56.60
20479;DHT22;10398;52.490;13.434;2023-05-28T13:15:06;25.30;56.70
20479;DHT22;10398;52.490;13.434;2023-05-28T13:17:33;25.40;55.30
20479;DHT22;10398;52.490;13.434;2023-05-28T13:19:58;25.30;54.30
20479;DHT22;10398;52.490;13.434;2023-05-28T13:22:24;25.20;53.90
20479;DHT22;10398;52.490;13.434;2023-05-28T13:24:50;25.10;54.80
20479;DHT22;10398;52.490;13.434;2023-05-28T13:27:16;25.20;56.40
20479;DHT22;10398;52.490;13.434;2023-05-28T13:29:42;25.20;55.40
20479;DHT22;10398;52.490;13.434;2023-05-28T13:32:08;25.30;56.20
20479;DHT22;10398;52.490;13.434;2023-05-28T13:34:33;25.40;55.50
20479;DHT22;10398;52.490;13.434;2023-05-28T13:36:59;25.40;56.30
20479;DHT22;10398;52.490;13.434;2023-05-28T13:39:25;25.40;56.20
20479;DHT22;10398;52.490;13.434;2023-05-28T13:41:51;25.50;55.70
20479;DHT22;10398;52.490;13.434;2023-05-28T13:44:19;25.50;55.90
20479;DHT22;10398;52.490;13.434;2023-05-28T13:46:45;25.60;56.00
20479;DHT22;10398;52.490;13.434;2023-05-28T13:49:14;25.60;55.40
20479;DHT22;10398;52.490;13.434;2023-05-28T13:51:40;25.50;56.80
20479;DHT22;10398;52.490;13.434;2023-05-28T13:54:07;25.50;58.50
20479;DHT22;10398;52.490;13.434;2023-05-28T13:56:33;25.60;56.30
20479;DHT22;10398;52.490;13.434;2023-05-28T13:58:58;25.70;55.90
20479;DHT22;10398;52.490;13.434;2023-05-28T14:01:24;25.70;56.40
20479;DHT22;10398;52.490;13.434;2023-05-28T14:03:50;25.80;55.70
20479;DHT22;10398;52.490;13.434;2023-05-28T14:06:15;25.80;54.30
20479;DHT22;10398;52.490;13.434;2023-05-28T14:08:41;25.80;53.60
20479;DHT22;10398;52.490;13.434;2023-05-28T14:11:07;25.80;54.40
20479;DHT22;10398;52.490;13.434;2023-05-28T14:13:32;25.80;54.10
20479;DHT22;10398;52.490;13.434;2023-05-28T14:15:58;25.70;52.70
20479;DHT22;10398;52.490;13.434;2023-05-28T14:18:24;25.70;53.60
20479;DHT22;10398;52.490;13.434;2023-05-28T14:20:50;25.70;54.90
20479;DHT22;10398;52.490;13.434;2023-05-28T14:23:16;25.80;54.40
20479;DHT22;10398;52.490;13.434;2023-05-28T14:25:41;25.80;53.60
20479;DHT22;10398;52.490;13.434;2023-05-28T14:28:07;25.80;54.90
20479;DHT22;10398;52.490;13.434;2023-05-28T14:30:32;25.80;55.70
20479;DHT22;10398;52.490;13.434;2023-05-28T14:32:58;25.80;53.70
20479;DHT22;10398;52.490;13.434;2023-05-28T14:35:24;25.80;54.00
20479;DHT22;10398;52.490;13.434;2023-05-28T14:37:50;25.70;54.00
20479;DHT22;10398;52.490;13.434;2023-05-28T14:40:19;25.70;55.20
20479;DHT22;10398;52.490;13.434;2023-05-28T14:42:45;25.80;54.80
20479;DHT22;10398;52.490;13.434;2023-05-28T14:45:11;25.90;54.70
20479;DHT22;10398;52.490;13.434;2023-05-28T14:47:38;25.90;53.60
20479;DHT22;10398;52.490;13.434;2023-05-28T14:50:05;25.90;53.50
20479;DHT22;10398;52.490;13.434;2023-05-28T14:52:31;26.00;53.70
20479;DHT22;10398;52.490;13.434;2023-05-28T14:54:57;26.00;54.80
20479;DHT22;10398;52.490;13.434;2023-05-28T14:57:24;26.10;54.10
20479;DHT22;10398;52.490;13.434;2023-05-28T14:59:51;26.10;54.30
20479;DHT22;10398;52.490;13.434;2023-05-28T15:02:19;26.10;55.10
20479;DHT22;10398;52.490;13.434;2023-05-28T15:04:46;26.10;54.90
20479;DHT22;10398;52.490;13.434;2023-05-28T15:07:12;26.10;54.70
20479;DHT22;10398;52.490;13.434;2023-05-28T15:09:39;26.10;54.70
20479;DHT22;10398;52.490;13.434;2023-05-28T15:12:05;26.10;54.40
20479;DHT22;10398;52.490;13.434;2023-05-28T15:14:32;26.10;54.50
20479;DHT22;10398;52.490;13.434;2023-05-28T15:16:58;26.10;54.80
20479;DHT22;10398;52.490;13.434;2023-05-28T15:19:24;26.10;55.30
20479;DHT22;10398;52.490;13.434;2023-05-28T15:21:50;26.10;54.90
20479;DHT22;10398;52.490;13.434;2023-05-28T15:24:16;26.00;54.30
20479;DHT22;10398;52.490;13.434;2023-05-28T15:26:42;26.00;54.90